sensor_id;sensor_type;location;lat;lon;timestamp;temperature;humidity
65078;DHT22;51672;51.230;-2.322;2023-02-08T00:01:11;-1.10;99.90
65078;DHT22;51672;51.230;-2.322;2023-02-08T00:04:53;-1.20;99.90
65078;DHT22;51672;51.230;-2.322;2023-02-08T00:08:36;-1.20;99.90
65078;DHT22;51672;51.230;-2.322;2023-02-08T00:12:18;-1.20;99.90
65078;DHT22;51672;51.230;-2.322;2023-02-08T00:16:00;-1.20;99.90
65078;DHT22;51672;51.230;-2.322;2023-02-08T00:19:42;-1.30;99.90
65078;DHT22;51672;51.230;-2.322;2023-02-08T00:23:25;-1.30;99.90
65078;DHT22;51672;51.230;-2.322;2023-02-08T00:27:07;-1.30;99.90
65078;DHT22;51672;51.230;-2.322;2023-02-08T00:30:49;-1.40;99.90
65078;DHT22;51672;51.230;-2.322;2023-02-08T00:34:31;-1.40;99.90
65078;DHT22;51672;51.230;-2.322;2023-02-08T00:38:15;-1.30;99.90
65078;DHT22;51672;51.230;-2.322;2023-02-08T00:41:57;-1.30;99.90
65078;DHT22;51672;51.230;-2.322;2023-02-08T00:45:40;-1.40;99.90
65078;DHT22;51672;51.230;-2.322;2023-02-08T00:49:22;-1.40;99.90
65078;DHT22;51672;51.230;-2.322;2023-02-08T00:53:04;-1.40;99.90
65078;DHT22;51672;51.230;-2.322;2023-02-08T00:56:46;-1.50;99.90
65078;DHT22;51672;51.230;-2.322;2023-02-08T01:00:28;-1.50;99.90
65078;DHT22;51672;51.230;-2.322;2023-02-08T01:04:10;-1.60;99.90
65078;DHT22;51672;51.230;-2.322;2023-02-08T01:07:52;-1.60;99.90
65078;DHT22;51672;51.230;-2.322;2023-02-08T01:11:34;-1.60;99.90
65078;DHT22;51672;51.230;-2.322;2023-02-08T01:15:16;-1.70;99.90
65078;DHT22;51672;51.230;-2.322;2023-02-08T01:19:00;-1.70;99.90
65078;DHT22;51672;51.230;-2.322;2023-02-08T01:22:42;-1.80;99.90
65078;DHT22;51672;51.230;-2.322;2023-02-08T01:26:25;-1.80;99.90
65078;DHT22;51672;51.230;-2.322;2023-02-08T01:30:07;-1.90;99.90
65078;DHT22;51672;51.230;-2.322;2023-02-08T01:33:50;-2.00;99.90
65078;DHT22;51672;51.230;-2.322;2023-02-08T01:37:32;-2.00;99.90
65078;DHT22;51672;51.230;-2.322;2023-02-08T01:41:20;-2.00;99.90
65078;DHT22;51672;51.230;-2.322;2023-02-08T01:49:01;-2.10;99.90
65078;DHT22;51672;51.230;-2.322;2023-02-08T01:52:44;-2.10;99.90
65078;DHT22;51672;51.230;-2.322;2023-02-08T01:56:36;-2.10;99.90
65078;DHT22;51672;51.230;-2.322;2023-02-08T02:00:21;-2.10;99.90
65078;DHT22;51672;51.230;-2.322;2023-02-08T02:04:04;-2.10;99.90
65078;DHT22;51672;51.230;-2.322;2023-02-08T02:07:47;-2.20;99.90
65078;DHT22;51672;51.230;-2.322;2023-02-08T02:11:29;-2.20;99.90
65078;DHT22;51672;51.230;-2.322;2023-02-08T02:15:11;-2.20;99.90
65078;DHT22;51672;51.230;-2.322;2023-02-08T02:18:53;-2.30;99.90
65078;DHT22;51672;51.230;-2.322;2023-02-08T02:35:04;-2.40;99.90
65078;DHT22;51672;51.230;-2.322;2023-02-08T02:43:41;-2.40;99.90
65078;DHT22;51672;51.230;-2.322;2023-02-08T02:47:59;-2.50;99.90
65078;DHT22;51672;51.230;-2.322;2023-02-08T02:52:01;-2.50;99.90
65078;DHT22;51672;51.230;-2.322;2023-02-08T02:55:51;-2.50;99.90
65078;DHT22;51672;51.230;-2.322;2023-02-08T02:59:41;-2.60;99.90
65078;DHT22;51672;51.230;-2.322;2023-02-08T03:03:28;-2.60;99.90
65078;DHT22;51672;51.230;-2.322;2023-02-08T03:11:33;-2.60;99.90
65078;DHT22;51672;51.230;-2.322;2023-02-08T03:19:08;-2.70;99.90
65078;DHT22;51672;51.230;-2.322;2023-02-08T03:23:15;-2.70;99.90
65078;DHT22;51672;51.230;-2.322;2023-02-08T03:27:11;-2.80;99.90
65078;DHT22;51672;51.230;-2.322;2023-02-08T03:35:09;-2.80;99.90
65078;DHT22;51672;51.230;-2.322;2023-02-08T03:38:52;-2.80;99.90
65078;DHT22;51672;51.230;-2.322;2023-02-08T03:42:36;-2.90;99.90
65078;DHT22;51672;51.230;-2.322;2023-02-08T03:46:29;-2.90;99.90
65078;DHT22;51672;51.230;-2.322;2023-02-08T03:50:15;-2.90;99.90
65078;DHT22;51672;51.230;-2.322;2023-02-08T03:54:03;-3.00;99.90
65078;DHT22;51672;51.230;-2.322;2023-02-08T03:57:56;-3.00;99.90
65078;DHT22;51672;51.230;-2.322;2023-02-08T04:01:44;-3.00;99.90
65078;DHT22;51672;51.230;-2.322;2023-02-08T04:05:27;-3.00;99.90
65078;DHT22;51672;51.230;-2.322;2023-02-08T04:09:09;-3.00;99.90
65078;DHT22;51672;51.230;-2.322;2023-02-08T04:12:52;-3.00;99.90
65078;DHT22;51672;51.230;-2.322;2023-02-08T04:16:34;-3.10;99.90
65078;DHT22;51672;51.230;-2.322;2023-02-08T04:20:16;-3.10;99.90
65078;DHT22;51672;51.230;-2.322;2023-02-08T04:23:58;-3.10;99.90
65078;DHT22;51672;51.230;-2.322;2023-02-08T04:27:42;-3.00;99.90
65078;DHT22;51672;51.230;-2.322;2023-02-08T04:31:24;-3.10;99.90
65078;DHT22;51672;51.230;-2.322;2023-02-08T04:35:07;-3.10;99.90
65078;DHT22;51672;51.230;-2.322;2023-02-08T04:38:49;-3.00;99.90
65078;DHT22;51672;51.230;-2.322;2023-02-08T04:42:31;-2.90;99.90
65078;DHT22;51672;51.230;-2.322;2023-02-08T04:46:14;-2.80;99.90
65078;DHT22;51672;51.230;-2.322;2023-02-08T04:49:56;-2.90;99.90
65078;DHT22;51672;51.230;-2.322;2023-02-08T04:53:38;-2.80;99.90
65078;DHT22;51672;51.230;-2.322;2023-02-08T04:57:20;-2.70;99.90
65078;DHT22;51672;51.230;-2.322;2023-02-08T05:01:06;-2.70;99.90
65078;DHT22;51672;51.230;-2.322;2023-02-08T05:04:49;-2.70;99.90
65078;DHT22;51672;51.230;-2.322;2023-02-08T05:08:31;-2.70;99.90
65078;DHT22;51672;51.230;-2.322;2023-02-08T05:12:13;-2.70;99.90
65078;DHT22;51672;51.230;-2.322;2023-02-08T05:15:55;-2.70;99.90
65078;DHT22;51672;51.230;-2.322;2023-02-08T05:19:37;-2.60;99.90
65078;DHT22;51672;51.230;-2.322;2023-02-08T05:23:19;-2.60;99.90
65078;DHT22;51672;51.230;-2.322;2023-02-08T05:27:01;-2.60;99.90
65078;DHT22;51672;51.230;-2.322;2023-02-08T05:30:44;-2.50;99.90
65078;DHT22;51672;51.230;-2.322;2023-02-08T05:34:26;-2.60;99.90
65078;DHT22;51672;51.230;-2.322;2023-02-08T05:38:08;-2.50;99.90
65078;DHT22;51672;51.230;-2.322;2023-02-08T05:41:50;-2.50;99.90
65078;DHT22;51672;51.230;-2.322;2023-02-08T05:45:32;-2.60;99.90
65078;DHT22;51672;51.230;-2.322;2023-02-08T05:49:14;-2.60;99.90
65078;DHT22;51672;51.230;-2.322;2023-02-08T05:52:56;-2.60;99.90
65078;DHT22;51672;51.230;-2.322;2023-02-08T05:56:38;-2.70;99.90
65078;DHT22;51672;51.230;-2.322;2023-02-08T06:00:23;-2.70;99.90
65078;DHT22;51672;51.230;-2.322;2023-02-08T06:04:05;-2.70;99.90
65078;DHT22;51672;51.230;-2.322;2023-02-08T06:07:49;-2.70;99.90
65078;DHT22;51672;51.230;-2.322;2023-02-08T06:11:31;-2.70;99.90
65078;DHT22;51672;51.230;-2.322;2023-02-08T06:15:14;-2.80;99.90
65078;DHT22;51672;51.230;-2.322;2023-02-08T06:18:56;-2.90;99.90
65078;DHT22;51672;51.230;-2.322;2023-02-08T06:22:39;-3.00;99.90
65078;DHT22;51672;51.230;-2.322;2023-02-08T06:26:21;-3.00;99.90
65078;DHT22;51672;51.230;-2.322;2023-02-08T06:30:04;-3.10;99.90
65078;DHT22;51672;51.230;-2.322;2023-02-08T06:33:46;-3.20;99.90
65078;DHT22;51672;51.230;-2.322;2023-02-08T06:37:28;-3.20;99.90
65078;DHT22;51672;51.230;-2.322;2023-02-08T06:41:10;-3.30;99.90
65078;DHT22;51672;51.230;-2.322;2023-02-08T06:44:52;-3.40;99.90
65078;DHT22;51672;51.230;-2.322;2023-02-08T06:48:36;-3.40;99.90
65078;DHT22;51672;51.230;-2.322;2023-02-08T06:52:19;-3.30;99.90
65078;DHT22;51672;51.230;-2.322;2023-02-08T06:56:01;-3.20;99.90
65078;DHT22;51672;51.230;-2.322;2023-02-08T06:59:44;-3.20;99.90
65078;DHT22;51672;51.230;-2.322;2023-02-08T07:03:26;-3.30;99.90
65078;DHT22;51672;51.230;-2.322;2023-02-08T07:07:08;-3.20;99.90
65078;DHT22;51672;51.230;-2.322;2023-02-08T07:10:50;-3.30;99.90
65078;DHT22;51672;51.230;-2.322;2023-02-08T07:14:39;-3.30;99.90
65078;DHT22;51672;51.230;-2.322;2023-02-08T07:18:21;-3.30;99.90
65078;DHT22;51672;51.230;-2.322;2023-02-08T07:22:04;-3.30;99.90
65078;DHT22;51672;51.230;-2.322;2023-02-08T07:26:06;-3.30;99.90
65078;DHT22;51672;51.230;-2.322;2023-02-08T07:29:51;-3.40;99.90
65078;DHT22;51672;51.230;-2.322;2023-02-08T07:33:33;-3.40;99.90
65078;DHT22;51672;51.230;-2.322;2023-02-08T07:37:16;-3.40;99.90
65078;DHT22;51672;51.230;-2.322;2023-02-08T07:41:10;-3.40;99.90
65078;DHT22;51672;51.230;-2.322;2023-02-08T07:44:52;-3.40;99.90
65078;DHT22;51672;51.230;-2.322;2023-02-08T07:48:34;-3.40;99.90
65078;DHT22;51672;51.230;-2.322;2023-02-08T07:52:18;-3.40;99.90
65078;DHT22;51672;51.230;-2.322;2023-02-08T07:56:00;-3.40;99.90
65078;DHT22;51672;51.230;-2.322;2023-02-08T07:59:42;-3.40;99.90
65078;DHT22;51672;51.230;-2.322;2023-02-08T08:03:24;-3.30;99.90
65078;DHT22;51672;51.230;-2.322;2023-02-08T08:07:06;-3.30;99.90
65078;DHT22;51672;51.230;-2.322;2023-02-08T08:10:48;-3.30;99.90
65078;DHT22;51672;51.230;-2.322;2023-02-08T08:14:30;-3.20;99.90
65078;DHT22;51672;51.230;-2.322;2023-02-08T08:18:12;-3.10;99.90
65078;DHT22;51672;51.230;-2.322;2023-02-08T08:21:54;-3.00;99.90
65078;DHT22;51672;51.230;-2.322;2023-02-08T08:25:36;-2.80;99.90
65078;DHT22;51672;51.230;-2.322;2023-02-08T08:29:35;-2.60;99.90
65078;DHT22;51672;51.230;-2.322;2023-02-08T08:33:17;-2.30;99.90
65078;DHT22;51672;51.230;-2.322;2023-02-08T08:45:52;-1.10;99.90
65078;DHT22;51672;51.230;-2.322;2023-02-08T08:58:22;1.10;99.90
65078;DHT22;51672;51.230;-2.322;2023-02-08T09:37:48;8.30;99.90
65078;DHT22;51672;51.230;-2.322;2023-02-08T12:52:25;5.40;99.90
65078;DHT22;51672;51.230;-2.322;2023-02-08T13:22:49;6.10;99.90
65078;DHT22;51672;51.230;-2.322;2023-02-08T14:59:39;6.90;99.90
65078;DHT22;51672;51.230;-2.322;2023-02-08T16:29:45;6.10;99.90
65078;DHT22;51672;51.230;-2.322;2023-02-08T16:55:57;5.40;99.90
65078;DHT22;51672;51.230;-2.322;2023-02-08T17:12:52;5.00;99.90
65078;DHT22;51672;51.230;-2.322;2023-02-08T17:16:54;4.90;99.90
65078;DHT22;51672;51.230;-2.322;2023-02-08T17:20:36;4.80;99.90
65078;DHT22;51672;51.230;-2.322;2023-02-08T17:24:18;4.80;99.90
65078;DHT22;51672;51.230;-2.322;2023-02-08T17:28:09;4.80;99.90
65078;DHT22;51672;51.230;-2.322;2023-02-08T17:31:52;4.70;99.90
65078;DHT22;51672;51.230;-2.322;2023-02-08T17:35:35;4.80;99.90
65078;DHT22;51672;51.230;-2.322;2023-02-08T17:39:18;4.70;99.90
65078;DHT22;51672;51.230;-2.322;2023-02-08T17:43:00;4.60;99.90
65078;DHT22;51672;51.230;-2.322;2023-02-08T17:46:45;4.60;99.90
65078;DHT22;51672;51.230;-2.322;2023-02-08T17:50:27;4.50;99.90
65078;DHT22;51672;51.230;-2.322;2023-02-08T17:54:09;4.40;99.90
65078;DHT22;51672;51.230;-2.322;2023-02-08T17:57:52;4.30;99.90
65078;DHT22;51672;51.230;-2.322;2023-02-08T18:01:34;4.20;99.90
65078;DHT22;51672;51.230;-2.322;2023-02-08T18:05:19;4.20;99.90
65078;DHT22;51672;51.230;-2.322;2023-02-08T18:09:01;4.20;99.90
65078;DHT22;51672;51.230;-2.322;2023-02-08T18:12:44;4.10;99.90
65078;DHT22;51672;51.230;-2.322;2023-02-08T18:16:26;4.00;99.90
65078;DHT22;51672;51.230;-2.322;2023-02-08T18:20:10;3.90;99.90
65078;DHT22;51672;51.230;-2.322;2023-02-08T18:23:54;3.80;99.90
65078;DHT22;51672;51.230;-2.322;2023-02-08T18:27:37;3.70;99.90
65078;DHT22;51672;51.230;-2.322;2023-02-08T18:31:20;3.60;99.90
65078;DHT22;51672;51.230;-2.322;2023-02-08T18:35:02;3.60;99.90
65078;DHT22;51672;51.230;-2.322;2023-02-08T18:38:47;3.50;99.90
65078;DHT22;51672;51.230;-2.322;2023-02-08T18:42:30;3.40;99.90
65078;DHT22;51672;51.230;-2.322;2023-02-08T18:46:16;3.30;99.90
65078;DHT22;51672;51.230;-2.322;2023-02-08T18:49:59;3.30;99.90
65078;DHT22;51672;51.230;-2.322;2023-02-08T18:53:41;3.20;99.90
65078;DHT22;51672;51.230;-2.322;2023-02-08T18:57:23;3.10;99.90
65078;DHT22;51672;51.230;-2.322;2023-02-08T19:01:12;3.10;99.90
65078;DHT22;51672;51.230;-2.322;2023-02-08T19:04:55;3.00;99.90
65078;DHT22;51672;51.230;-2.322;2023-02-08T19:08:37;3.00;99.90
65078;DHT22;51672;51.230;-2.322;2023-02-08T19:12:21;2.90;99.90
65078;DHT22;51672;51.230;-2.322;2023-02-08T19:16:05;2.80;99.90
65078;DHT22;51672;51.230;-2.322;2023-02-08T19:19:47;2.70;99.90
65078;DHT22;51672;51.230;-2.322;2023-02-08T19:23:29;2.70;99.90
65078;DHT22;51672;51.230;-2.322;2023-02-08T19:27:12;2.70;99.90
65078;DHT22;51672;51.230;-2.322;2023-02-08T19:31:20;2.60;99.90
65078;DHT22;51672;51.230;-2.322;2023-02-08T19:35:02;2.60;99.90
65078;DHT22;51672;51.230;-2.322;2023-02-08T19:48:22;2.50;99.90
65078;DHT22;51672;51.230;-2.322;2023-02-08T19:52:05;2.50;99.90
65078;DHT22;51672;51.230;-2.322;2023-02-08T19:56:00;2.50;99.90
65078;DHT22;51672;51.230;-2.322;2023-02-08T19:59:43;2.40;99.90
65078;DHT22;51672;51.230;-2.322;2023-02-08T20:03:26;2.40;99.90
65078;DHT22;51672;51.230;-2.322;2023-02-08T20:07:09;2.50;99.90
65078;DHT22;51672;51.230;-2.322;2023-02-08T20:10:54;2.50;99.90
65078;DHT22;51672;51.230;-2.322;2023-02-08T20:14:36;2.50;99.90
65078;DHT22;51672;51.230;-2.322;2023-02-08T20:18:19;2.50;99.90
65078;DHT22;51672;51.230;-2.322;2023-02-08T20:22:03;2.50;99.90
65078;DHT22;51672;51.230;-2.322;2023-02-08T20:25:45;2.40;99.90
65078;DHT22;51672;51.230;-2.322;2023-02-08T20:29:31;2.40;99.90
65078;DHT22;51672;51.230;-2.322;2023-02-08T20:33:16;2.40;99.90
65078;DHT22;51672;51.230;-2.322;2023-02-08T20:36:59;2.40;99.90
65078;DHT22;51672;51.230;-2.322;2023-02-08T20:40:49;2.40;99.90
65078;DHT22;51672;51.230;-2.322;2023-02-08T20:44:31;2.50;99.90
65078;DHT22;51672;51.230;-2.322;2023-02-08T20:48:14;2.70;99.90
65078;DHT22;51672;51.230;-2.322;2023-02-08T20:51:56;2.90;99.90
65078;DHT22;51672;51.230;-2.322;2023-02-08T20:55:42;3.00;99.90
65078;DHT22;51672;51.230;-2.322;2023-02-08T20:59:25;3.20;99.90
65078;DHT22;51672;51.230;-2.322;2023-02-08T21:03:07;3.30;99.90
65078;DHT22;51672;51.230;-2.322;2023-02-08T21:06:50;3.40;99.90
65078;DHT22;51672;51.230;-2.322;2023-02-08T21:10:35;3.40;99.90
65078;DHT22;51672;51.230;-2.322;2023-02-08T21:14:20;3.50;99.90
65078;DHT22;51672;51.230;-2.322;2023-02-08T21:18:02;3.50;99.90
65078;DHT22;51672;51.230;-2.322;2023-02-08T21:21:45;3.50;99.90
65078;DHT22;51672;51.230;-2.322;2023-02-08T21:25:30;3.60;99.90
65078;DHT22;51672;51.230;-2.322;2023-02-08T21:29:12;3.70;99.90
65078;DHT22;51672;51.230;-2.322;2023-02-08T21:32:54;3.70;99.90
65078;DHT22;51672;51.230;-2.322;2023-02-08T21:36:36;3.80;99.90
65078;DHT22;51672;51.230;-2.322;2023-02-08T21:40:19;3.90;99.90
65078;DHT22;51672;51.230;-2.322;2023-02-08T21:44:03;3.90;99.90
65078;DHT22;51672;51.230;-2.322;2023-02-08T21:47:46;4.00;99.90
65078;DHT22;51672;51.230;-2.322;2023-02-08T21:51:28;4.10;99.90
65078;DHT22;51672;51.230;-2.322;2023-02-08T21:55:31;4.10;99.90
65078;DHT22;51672;51.230;-2.322;2023-02-08T21:59:13;4.20;99.90
65078;DHT22;51672;51.230;-2.322;2023-02-08T22:02:55;4.30;99.90
65078;DHT22;51672;51.230;-2.322;2023-02-08T22:06:37;4.30;99.90
65078;DHT22;51672;51.230;-2.322;2023-02-08T22:10:23;4.30;99.90
65078;DHT22;51672;51.230;-2.322;2023-02-08T22:14:05;4.40;99.90
65078;DHT22;51672;51.230;-2.322;2023-02-08T22:17:54;4.40;99.90
65078;DHT22;51672;51.230;-2.322;2023-02-08T22:21:37;4.40;99.90
65078;DHT22;51672;51.230;-2.322;2023-02-08T22:25:19;4.50;99.90
65078;DHT22;51672;51.230;-2.322;2023-02-08T22:29:01;4.50;99.90
65078;DHT22;51672;51.230;-2.322;2023-02-08T22:32:44;4.60;99.90
65078;DHT22;51672;51.230;-2.322;2023-02-08T22:36:27;4.50;99.90
65078;DHT22;51672;51.230;-2.322;2023-02-08T22:40:10;4.50;99.90
65078;DHT22;51672;51.230;-2.322;2023-02-08T22:43:52;4.50;99.90
65078;DHT22;51672;51.230;-2.322;2023-02-08T22:47:35;4.50;99.90
65078;DHT22;51672;51.230;-2.322;2023-02-08T22:51:17;4.40;99.90
65078;DHT22;51672;51.230;-2.322;2023-02-08T22:55:00;4.40;99.90
65078;DHT22;51672;51.230;-2.322;2023-02-08T22:58:44;4.40;99.90
65078;DHT22;51672;51.230;-2.322;2023-02-08T23:02:26;4.40;99.90
65078;DHT22;51672;51.230;-2.322;2023-02-08T23:06:11;4.40;99.90
65078;DHT22;51672;51.230;-2.322;2023-02-08T23:09:53;4.40;99.90
65078;DHT22;51672;51.230;-2.322;2023-02-08T23:13:35;4.30;99.90
65078;DHT22;51672;51.230;-2.322;2023-02-08T23:17:17;4.30;99.90
65078;DHT22;51672;51.230;-2.322;2023-02-08T23:21:04;4.30;99.90
65078;DHT22;51672;51.230;-2.322;2023-02-08T23:24:47;4.30;99.90
65078;DHT22;51672;51.230;-2.322;2023-02-08T23:28:29;4.20;99.90
65078;DHT22;51672;51.230;-2.322;2023-02-08T23:32:11;4.10;99.90
65078;DHT22;51672;51.230;-2.322;2023-02-08T23:35:53;4.00;99.90
65078;DHT22;51672;51.230;-2.322;2023-02-08T23:39:35;3.90;99.90
65078;DHT22;51672;51.230;-2.322;2023-02-08T23:43:17;3.70;99.90
65078;DHT22;51672;51.230;-2.322;2023-02-08T23:46:59;3.70;99.90
65078;DHT22;51672;51.230;-2.322;2023-02-08T23:50:41;3.50;99.90
65078;DHT22;51672;51.230;-2.322;2023-02-08T23:54:23;3.50;99.90
65078;DHT22;51672;51.230;-2.322;2023-02-08T23:58:05;3.40;99.90
